sensor_id;sensor_type;location;lat;lon;timestamp;P1;durP1;ratioP1;P2;durP2;ratioP2
23684;SDS011;12020;51.384;6.908;2022-08-14T00:00:15;5.63;;;5.13;;
23684;SDS011;12020;51.384;6.908;2022-08-14T00:02:43;5.93;;;5.03;;
23684;SDS011;12020;51.384;6.908;2022-08-14T00:05:11;5.77;;;5.30;;
23684;SDS011;12020;51.384;6.908;2022-08-14T00:07:39;6.03;;;5.53;;
23684;SDS011;12020;51.384;6.908;2022-08-14T00:10:06;5.47;;;5.07;;
23684;SDS011;12020;51.384;6.908;2022-08-14T00:12:36;6.55;;;5.30;;
23684;SDS011;12020;51.384;6.908;2022-08-14T00:15:32;6.13;;;5.57;;
23684;SDS011;12020;51.384;6.908;2022-08-14T00:18:01;5.82;;;5.32;;
23684;SDS011;12020;51.384;6.908;2022-08-14T00:20:29;5.88;;;5.30;;
23684;SDS011;12020;51.384;6.908;2022-08-14T00:22:58;5.90;;;5.40;;
23684;SDS011;12020;51.384;6.908;2022-08-14T00:25:24;6.18;;;5.32;;
23684;SDS011;12020;51.384;6.908;2022-08-14T00:27:51;5.57;;;5.17;;
23684;SDS011;12020;51.384;6.908;2022-08-14T00:30:17;6.30;;;5.80;;
23684;SDS011;12020;51.384;6.908;2022-08-14T00:32:42;6.30;;;5.70;;
23684;SDS011;12020;51.384;6.908;2022-08-14T00:35:10;6.28;;;5.75;;
23684;SDS011;12020;51.384;6.908;2022-08-14T00:37:37;6.00;;;5.50;;
23684;SDS011;12020;51.384;6.908;2022-08-14T00:40:05;6.75;;;6.18;;
23684;SDS011;12020;51.384;6.908;2022-08-14T00:42:32;6.60;;;6.00;;
23684;SDS011;12020;51.384;6.908;2022-08-14T00:44:58;6.00;;;5.55;;
23684;SDS011;12020;51.384;6.908;2022-08-14T00:47:24;6.90;;;6.30;;
23684;SDS011;12020;51.384;6.908;2022-08-14T00:49:51;6.30;;;5.80;;
23684;SDS011;12020;51.384;6.908;2022-08-14T00:52:20;6.70;;;6.10;;
23684;SDS011;12020;51.384;6.908;2022-08-14T00:54:47;6.30;;;5.80;;
23684;SDS011;12020;51.384;6.908;2022-08-14T00:57:21;6.50;;;6.00;;
23684;SDS011;12020;51.384;6.908;2022-08-14T00:59:49;6.87;;;5.97;;
23684;SDS011;12020;51.384;6.908;2022-08-14T01:02:16;6.15;;;5.65;;
23684;SDS011;12020;51.384;6.908;2022-08-14T01:04:48;7.30;;;6.10;;
23684;SDS011;12020;51.384;6.908;2022-08-14T01:07:16;6.68;;;6.10;;
23684;SDS011;12020;51.384;6.908;2022-08-14T01:09:49;6.32;;;5.72;;
23684;SDS011;12020;51.384;6.908;2022-08-14T01:12:17;6.78;;;6.28;;
23684;SDS011;12020;51.384;6.908;2022-08-14T01:14:44;6.53;;;6.03;;
23684;SDS011;12020;51.384;6.908;2022-08-14T01:17:11;6.60;;;6.10;;
23684;SDS011;12020;51.384;6.908;2022-08-14T01:19:37;6.68;;;6.18;;
23684;SDS011;12020;51.384;6.908;2022-08-14T01:22:21;6.32;;;5.82;;
23684;SDS011;12020;51.384;6.908;2022-08-14T01:24:47;6.78;;;6.28;;
23684;SDS011;12020;51.384;6.908;2022-08-14T01:27:17;6.90;;;6.30;;
23684;SDS011;12020;51.384;6.908;2022-08-14T01:29:48;6.50;;;6.00;;
23684;SDS011;12020;51.384;6.908;2022-08-14T01:32:17;7.30;;;6.70;;
23684;SDS011;12020;51.384;6.908;2022-08-14T01:34:49;6.80;;;6.20;;
23684;SDS011;12020;51.384;6.908;2022-08-14T01:37:18;7.03;;;6.43;;
23684;SDS011;12020;51.384;6.908;2022-08-14T01:39:50;7.10;;;6.18;;
23684;SDS011;12020;51.384;6.908;2022-08-14T01:42:17;7.35;;;6.75;;
23684;SDS011;12020;51.384;6.908;2022-08-14T01:44:43;7.10;;;6.60;;
23684;SDS011;12020;51.384;6.908;2022-08-14T01:47:16;7.30;;;6.67;;
23684;SDS011;12020;51.384;6.908;2022-08-14T01:49:43;7.05;;;6.45;;
23684;SDS011;12020;51.384;6.908;2022-08-14T01:52:09;7.22;;;6.63;;
23684;SDS011;12020;51.384;6.908;2022-08-14T01:54:36;7.40;;;6.70;;
23684;SDS011;12020;51.384;6.908;2022-08-14T01:57:02;9.23;;;7.20;;
23684;SDS011;12020;51.384;6.908;2022-08-14T01:59:29;7.40;;;6.80;;
23684;SDS011;12020;51.384;6.908;2022-08-14T02:01:57;7.82;;;7.03;;
23684;SDS011;12020;51.384;6.908;2022-08-14T02:04:32;8.25;;;7.57;;
23684;SDS011;12020;51.384;6.908;2022-08-14T02:09:28;8.05;;;7.35;;
23684;SDS011;12020;51.384;6.908;2022-08-14T02:11:59;8.43;;;7.65;;
23684;SDS011;12020;51.384;6.908;2022-08-14T02:14:25;7.55;;;6.95;;
23684;SDS011;12020;51.384;6.908;2022-08-14T02:16:51;7.57;;;6.78;;
23684;SDS011;12020;51.384;6.908;2022-08-14T02:19:19;7.80;;;7.20;;
23684;SDS011;12020;51.384;6.908;2022-08-14T02:21:49;7.50;;;6.80;;
23684;SDS011;12020;51.384;6.908;2022-08-14T02:24:17;7.35;;;6.80;;
23684;SDS011;12020;51.384;6.908;2022-08-14T02:26:45;7.25;;;6.63;;
23684;SDS011;12020;51.384;6.908;2022-08-14T02:29:13;7.35;;;6.75;;
23684;SDS011;12020;51.384;6.908;2022-08-14T02:31:47;7.75;;;6.97;;
23684;SDS011;12020;51.384;6.908;2022-08-14T02:34:17;7.75;;;7.05;;
23684;SDS011;12020;51.384;6.908;2022-08-14T02:36:49;7.60;;;7.00;;
23684;SDS011;12020;51.384;6.908;2022-08-14T02:39:15;7.70;;;7.00;;
23684;SDS011;12020;51.384;6.908;2022-08-14T02:41:41;7.80;;;7.20;;
23684;SDS011;12020;51.384;6.908;2022-08-14T02:44:08;8.25;;;7.65;;
23684;SDS011;12020;51.384;6.908;2022-08-14T02:46:36;8.55;;;7.75;;
23684;SDS011;12020;51.384;6.908;2022-08-14T02:49:02;8.57;;;7.88;;
23684;SDS011;12020;51.384;6.908;2022-08-14T02:51:30;8.95;;;8.25;;
23684;SDS011;12020;51.384;6.908;2022-08-14T02:53:57;8.80;;;8.10;;
23684;SDS011;12020;51.384;6.908;2022-08-14T02:56:23;8.65;;;7.85;;
23684;SDS011;12020;51.384;6.908;2022-08-14T02:58:51;8.65;;;7.80;;
23684;SDS011;12020;51.384;6.908;2022-08-14T03:01:19;8.75;;;7.97;;
23684;SDS011;12020;51.384;6.908;2022-08-14T03:03:46;7.93;;;7.32;;
23684;SDS011;12020;51.384;6.908;2022-08-14T03:06:14;8.00;;;7.25;;
23684;SDS011;12020;51.384;6.908;2022-08-14T03:08:41;8.02;;;7.43;;
23684;SDS011;12020;51.384;6.908;2022-08-14T03:11:11;8.33;;;7.63;;
23684;SDS011;12020;51.384;6.908;2022-08-14T03:13:38;8.30;;;7.60;;
23684;SDS011;12020;51.384;6.908;2022-08-14T03:16:10;8.13;;;7.35;;
23684;SDS011;12020;51.384;6.908;2022-08-14T03:18:41;8.50;;;7.80;;
23684;SDS011;12020;51.384;6.908;2022-08-14T03:21:13;8.77;;;8.07;;
23684;SDS011;12020;51.384;6.908;2022-08-14T03:23:41;8.57;;;7.88;;
23684;SDS011;12020;51.384;6.908;2022-08-14T03:26:13;8.43;;;7.80;;
23684;SDS011;12020;51.384;6.908;2022-08-14T03:28:42;8.70;;;8.00;;
23684;SDS011;12020;51.384;6.908;2022-08-14T03:31:10;8.00;;;7.40;;
23684;SDS011;12020;51.384;6.908;2022-08-14T03:33:37;8.35;;;7.65;;
23684;SDS011;12020;51.384;6.908;2022-08-14T03:36:12;8.30;;;7.60;;
23684;SDS011;12020;51.384;6.908;2022-08-14T03:38:41;8.40;;;7.68;;
23684;SDS011;12020;51.384;6.908;2022-08-14T03:41:09;8.70;;;8.10;;
23684;SDS011;12020;51.384;6.908;2022-08-14T03:43:43;8.98;;;8.07;;
23684;SDS011;12020;51.384;6.908;2022-08-14T03:46:10;8.65;;;7.95;;
23684;SDS011;12020;51.384;6.908;2022-08-14T03:48:37;9.73;;;8.90;;
23684;SDS011;12020;51.384;6.908;2022-08-14T03:51:04;9.27;;;8.50;;
23684;SDS011;12020;51.384;6.908;2022-08-14T03:53:36;9.45;;;8.75;;
23684;SDS011;12020;51.384;6.908;2022-08-14T03:56:05;9.40;;;8.60;;
23684;SDS011;12020;51.384;6.908;2022-08-14T03:58:46;9.70;;;8.80;;
23684;SDS011;12020;51.384;6.908;2022-08-14T04:01:14;10.20;;;9.30;;
23684;SDS011;12020;51.384;6.908;2022-08-14T04:03:43;9.23;;;8.43;;
23684;SDS011;12020;51.384;6.908;2022-08-14T04:06:10;9.02;;;8.23;;
23684;SDS011;12020;51.384;6.908;2022-08-14T04:08:37;9.13;;;8.43;;
23684;SDS011;12020;51.384;6.908;2022-08-14T04:11:04;9.68;;;8.85;;
23684;SDS011;12020;51.384;6.908;2022-08-14T04:13:31;9.07;;;8.38;;
23684;SDS011;12020;51.384;6.908;2022-08-14T04:15:59;9.35;;;8.55;;
23684;SDS011;12020;51.384;6.908;2022-08-14T04:18:26;9.00;;;8.30;;
23684;SDS011;12020;51.384;6.908;2022-08-14T04:20:52;9.30;;;8.50;;
23684;SDS011;12020;51.384;6.908;2022-08-14T04:23:17;9.27;;;8.57;;
23684;SDS011;12020;51.384;6.908;2022-08-14T04:25:43;9.35;;;8.55;;
23684;SDS011;12020;51.384;6.908;2022-08-14T04:28:09;9.60;;;8.80;;
23684;SDS011;12020;51.384;6.908;2022-08-14T04:30:36;9.77;;;8.98;;
23684;SDS011;12020;51.384;6.908;2022-08-14T04:33:05;9.95;;;9.13;;
23684;SDS011;12020;51.384;6.908;2022-08-14T04:35:36;10.05;;;9.27;;
23684;SDS011;12020;51.384;6.908;2022-08-14T04:38:06;9.30;;;8.60;;
23684;SDS011;12020;51.384;6.908;2022-08-14T04:40:50;9.80;;;8.97;;
23684;SDS011;12020;51.384;6.908;2022-08-14T04:43:35;9.98;;;9.07;;
23684;SDS011;12020;51.384;6.908;2022-08-14T04:46:02;9.93;;;9.10;;
23684;SDS011;12020;51.384;6.908;2022-08-14T04:48:28;10.00;;;9.20;;
23684;SDS011;12020;51.384;6.908;2022-08-14T04:50:54;10.40;;;9.60;;
23684;SDS011;12020;51.384;6.908;2022-08-14T04:53:24;9.77;;;8.88;;
23684;SDS011;12020;51.384;6.908;2022-08-14T04:55:53;9.98;;;9.23;;
23684;SDS011;12020;51.384;6.908;2022-08-14T04:58:22;9.82;;;9.10;;
23684;SDS011;12020;51.384;6.908;2022-08-14T05:00:50;9.82;;;8.82;;
23684;SDS011;12020;51.384;6.908;2022-08-14T05:03:17;10.63;;;9.73;;
23684;SDS011;12020;51.384;6.908;2022-08-14T05:05:52;10.27;;;9.48;;
23684;SDS011;12020;51.384;6.908;2022-08-14T05:08:20;10.32;;;9.43;;
23684;SDS011;12020;51.384;6.908;2022-08-14T05:10:51;10.07;;;9.27;;
23684;SDS011;12020;51.384;6.908;2022-08-14T05:13:19;10.20;;;9.40;;
23684;SDS011;12020;51.384;6.908;2022-08-14T05:15:47;10.20;;;9.43;;
23684;SDS011;12020;51.384;6.908;2022-08-14T05:18:14;11.15;;;10.18;;
23684;SDS011;12020;51.384;6.908;2022-08-14T05:20:42;10.63;;;9.73;;
23684;SDS011;12020;51.384;6.908;2022-08-14T05:23:10;10.57;;;9.70;;
23684;SDS011;12020;51.384;6.908;2022-08-14T05:25:40;10.75;;;9.95;;
23684;SDS011;12020;51.384;6.908;2022-08-14T05:28:10;11.13;;;10.20;;
23684;SDS011;12020;51.384;6.908;2022-08-14T05:30:43;11.10;;;10.00;;
23684;SDS011;12020;51.384;6.908;2022-08-14T05:33:15;11.02;;;10.20;;
23684;SDS011;12020;51.384;6.908;2022-08-14T05:35:42;11.23;;;10.30;;
23684;SDS011;12020;51.384;6.908;2022-08-14T05:38:10;11.10;;;10.20;;
23684;SDS011;12020;51.384;6.908;2022-08-14T05:40:38;11.17;;;10.30;;
23684;SDS011;12020;51.384;6.908;2022-08-14T05:43:04;10.70;;;9.80;;
23684;SDS011;12020;51.384;6.908;2022-08-14T05:45:31;10.88;;;9.98;;
23684;SDS011;12020;51.384;6.908;2022-08-14T05:47:58;10.90;;;10.00;;
23684;SDS011;12020;51.384;6.908;2022-08-14T05:50:24;11.00;;;10.02;;
23684;SDS011;12020;51.384;6.908;2022-08-14T05:52:50;10.93;;;9.90;;
23684;SDS011;12020;51.384;6.908;2022-08-14T05:55:16;11.90;;;10.90;;
23684;SDS011;12020;51.384;6.908;2022-08-14T05:58:01;12.50;;;11.20;;
23684;SDS011;12020;51.384;6.908;2022-08-14T06:00:33;12.25;;;11.25;;
23684;SDS011;12020;51.384;6.908;2022-08-14T06:03:04;12.30;;;11.20;;
23684;SDS011;12020;51.384;6.908;2022-08-14T06:05:32;11.88;;;10.77;;
23684;SDS011;12020;51.384;6.908;2022-08-14T06:07:59;11.82;;;10.85;;
23684;SDS011;12020;51.384;6.908;2022-08-14T06:10:25;11.57;;;10.68;;
23684;SDS011;12020;51.384;6.908;2022-08-14T06:12:52;12.73;;;11.70;;
23684;SDS011;12020;51.384;6.908;2022-08-14T06:15:18;12.77;;;11.68;;
23684;SDS011;12020;51.384;6.908;2022-08-14T06:17:48;13.43;;;12.10;;
23684;SDS011;12020;51.384;6.908;2022-08-14T06:20:17;12.77;;;11.68;;
23684;SDS011;12020;51.384;6.908;2022-08-14T06:22:44;12.20;;;11.20;;
23684;SDS011;12020;51.384;6.908;2022-08-14T06:25:12;11.43;;;10.43;;
23684;SDS011;12020;51.384;6.908;2022-08-14T06:27:41;11.40;;;10.45;;
23684;SDS011;12020;51.384;6.908;2022-08-14T06:30:11;11.70;;;10.73;;
23684;SDS011;12020;51.384;6.908;2022-08-14T06:32:38;10.80;;;9.90;;
23684;SDS011;12020;51.384;6.908;2022-08-14T06:35:05;11.10;;;10.13;;
23684;SDS011;12020;51.384;6.908;2022-08-14T06:37:39;11.00;;;10.10;;
23684;SDS011;12020;51.384;6.908;2022-08-14T06:40:10;9.68;;;8.77;;
23684;SDS011;12020;51.384;6.908;2022-08-14T06:42:39;9.80;;;8.83;;
23684;SDS011;12020;51.384;6.908;2022-08-14T06:45:06;10.32;;;9.05;;
23684;SDS011;12020;51.384;6.908;2022-08-14T06:47:33;9.90;;;8.90;;
23684;SDS011;12020;51.384;6.908;2022-08-14T06:50:02;10.52;;;9.73;;
23684;SDS011;12020;51.384;6.908;2022-08-14T06:52:30;10.70;;;9.70;;
23684;SDS011;12020;51.384;6.908;2022-08-14T06:54:57;10.85;;;9.85;;
23684;SDS011;12020;51.384;6.908;2022-08-14T06:57:24;11.30;;;10.40;;
23684;SDS011;12020;51.384;6.908;2022-08-14T06:59:59;11.95;;;11.05;;
23684;SDS011;12020;51.384;6.908;2022-08-14T07:02:26;11.35;;;10.45;;
23684;SDS011;12020;51.384;6.908;2022-08-14T07:05:10;11.50;;;10.45;;
23684;SDS011;12020;51.384;6.908;2022-08-14T07:07:55;11.48;;;10.55;;
23684;SDS011;12020;51.384;6.908;2022-08-14T07:10:23;11.63;;;10.73;;
23684;SDS011;12020;51.384;6.908;2022-08-14T07:12:51;11.88;;;10.98;;
23684;SDS011;12020;51.384;6.908;2022-08-14T07:15:17;11.40;;;10.50;;
23684;SDS011;12020;51.384;6.908;2022-08-14T07:17:44;11.32;;;10.43;;
23684;SDS011;12020;51.384;6.908;2022-08-14T07:20:13;11.82;;;10.82;;
23684;SDS011;12020;51.384;6.908;2022-08-14T07:22:46;11.13;;;10.20;;
23684;SDS011;12020;51.384;6.908;2022-08-14T07:25:12;11.03;;;10.03;;
23684;SDS011;12020;51.384;6.908;2022-08-14T07:27:39;10.55;;;9.75;;
23684;SDS011;12020;51.384;6.908;2022-08-14T07:30:05;11.02;;;10.10;;
23684;SDS011;12020;51.384;6.908;2022-08-14T07:32:32;11.02;;;10.02;;
23684;SDS011;12020;51.384;6.908;2022-08-14T07:35:01;11.13;;;10.23;;
23684;SDS011;12020;51.384;6.908;2022-08-14T07:37:28;9.90;;;9.00;;
23684;SDS011;12020;51.384;6.908;2022-08-14T07:39:54;9.45;;;8.68;;
23684;SDS011;12020;51.384;6.908;2022-08-14T07:42:21;9.30;;;8.40;;
23684;SDS011;12020;51.384;6.908;2022-08-14T07:44:48;9.55;;;8.55;;
23684;SDS011;12020;51.384;6.908;2022-08-14T07:47:16;9.43;;;8.63;;
23684;SDS011;12020;51.384;6.908;2022-08-14T07:49:43;9.38;;;8.63;;
23684;SDS011;12020;51.384;6.908;2022-08-14T07:52:26;8.82;;;7.97;;
23684;SDS011;12020;51.384;6.908;2022-08-14T07:54:53;8.70;;;7.90;;
23684;SDS011;12020;51.384;6.908;2022-08-14T07:57:19;8.50;;;7.90;;
23684;SDS011;12020;51.384;6.908;2022-08-14T07:59:46;8.95;;;8.20;;
23684;SDS011;12020;51.384;6.908;2022-08-14T08:02:13;8.77;;;7.95;;
23684;SDS011;12020;51.384;6.908;2022-08-14T08:04:44;8.38;;;7.78;;
23684;SDS011;12020;51.384;6.908;2022-08-14T08:07:13;7.97;;;7.28;;
23684;SDS011;12020;51.384;6.908;2022-08-14T08:09:46;8.52;;;7.50;;
23684;SDS011;12020;51.384;6.908;2022-08-14T08:12:18;8.05;;;7.22;;
23684;SDS011;12020;51.384;6.908;2022-08-14T08:14:45;8.43;;;7.73;;
23684;SDS011;12020;51.384;6.908;2022-08-14T08:17:12;8.10;;;7.40;;
23684;SDS011;12020;51.384;6.908;2022-08-14T08:19:39;7.83;;;7.13;;
23684;SDS011;12020;51.384;6.908;2022-08-14T08:22:05;7.77;;;7.17;;
23684;SDS011;12020;51.384;6.908;2022-08-14T08:24:31;7.72;;;7.03;;
23684;SDS011;12020;51.384;6.908;2022-08-14T08:27:02;7.68;;;7.07;;
23684;SDS011;12020;51.384;6.908;2022-08-14T08:29:43;7.55;;;6.95;;
23684;SDS011;12020;51.384;6.908;2022-08-14T08:32:10;7.53;;;6.83;;
23684;SDS011;12020;51.384;6.908;2022-08-14T08:34:45;7.87;;;7.27;;
23684;SDS011;12020;51.384;6.908;2022-08-14T08:37:12;7.75;;;7.22;;
23684;SDS011;12020;51.384;6.908;2022-08-14T08:39:46;8.10;;;7.50;;
23684;SDS011;12020;51.384;6.908;2022-08-14T08:42:23;7.78;;;7.18;;
23684;SDS011;12020;51.384;6.908;2022-08-14T08:44:53;7.70;;;7.00;;
23684;SDS011;12020;51.384;6.908;2022-08-14T08:47:19;7.13;;;6.55;;
23684;SDS011;12020;51.384;6.908;2022-08-14T08:49:45;7.57;;;6.80;;
23684;SDS011;12020;51.384;6.908;2022-08-14T08:52:11;7.50;;;6.80;;
23684;SDS011;12020;51.384;6.908;2022-08-14T08:54:37;7.60;;;7.00;;
23684;SDS011;12020;51.384;6.908;2022-08-14T08:57:13;7.30;;;6.60;;
23684;SDS011;12020;51.384;6.908;2022-08-14T08:59:43;7.72;;;7.00;;
23684;SDS011;12020;51.384;6.908;2022-08-14T09:02:11;7.60;;;7.00;;
23684;SDS011;12020;51.384;6.908;2022-08-14T09:04:41;8.00;;;7.20;;
23684;SDS011;12020;51.384;6.908;2022-08-14T09:07:12;7.50;;;6.90;;
23684;SDS011;12020;51.384;6.908;2022-08-14T09:09:39;7.70;;;7.00;;
23684;SDS011;12020;51.384;6.908;2022-08-14T09:12:17;7.20;;;6.60;;
23684;SDS011;12020;51.384;6.908;2022-08-14T09:14:45;7.32;;;6.78;;
23684;SDS011;12020;51.384;6.908;2022-08-14T09:17:17;6.85;;;6.35;;
23684;SDS011;12020;51.384;6.908;2022-08-14T09:19:43;7.70;;;7.10;;
23684;SDS011;12020;51.384;6.908;2022-08-14T09:22:22;7.15;;;6.45;;
23684;SDS011;12020;51.384;6.908;2022-08-14T09:24:53;6.95;;;6.35;;
23684;SDS011;12020;51.384;6.908;2022-08-14T09:27:22;7.07;;;6.47;;
23684;SDS011;12020;51.384;6.908;2022-08-14T09:29:48;6.45;;;5.95;;
23684;SDS011;12020;51.384;6.908;2022-08-14T09:32:22;5.83;;;5.33;;
23684;SDS011;12020;51.384;6.908;2022-08-14T09:35:16;6.07;;;5.57;;
23684;SDS011;12020;51.384;6.908;2022-08-14T09:43:42;5.22;;;4.80;;
23684;SDS011;12020;51.384;6.908;2022-08-14T09:46:23;4.82;;;4.43;;
23684;SDS011;12020;51.384;6.908;2022-08-14T09:48:59;5.30;;;4.80;;
23684;SDS011;12020;51.384;6.908;2022-08-14T09:51:26;4.85;;;4.45;;
23684;SDS011;12020;51.384;6.908;2022-08-14T09:54:08;4.50;;;4.20;;
23684;SDS011;12020;51.384;6.908;2022-08-14T09:56:43;4.50;;;4.20;;
23684;SDS011;12020;51.384;6.908;2022-08-14T09:59:16;5.25;;;4.45;;
23684;SDS011;12020;51.384;6.908;2022-08-14T10:01:47;6.37;;;4.30;;
23684;SDS011;12020;51.384;6.908;2022-08-14T10:04:18;4.55;;;4.15;;
23684;SDS011;12020;51.384;6.908;2022-08-14T10:06:47;4.82;;;4.32;;
23684;SDS011;12020;51.384;6.908;2022-08-14T10:09:15;6.28;;;5.22;;
23684;SDS011;12020;51.384;6.908;2022-08-14T10:11:52;5.50;;;5.10;;
23684;SDS011;12020;51.384;6.908;2022-08-14T10:14:23;5.00;;;4.30;;
23684;SDS011;12020;51.384;6.908;2022-08-14T10:16:54;6.03;;;5.63;;
23684;SDS011;12020;51.384;6.908;2022-08-14T10:19:24;6.15;;;5.60;;
23684;SDS011;12020;51.384;6.908;2022-08-14T10:22:04;6.20;;;5.70;;
23684;SDS011;12020;51.384;6.908;2022-08-14T10:24:42;5.80;;;5.10;;
23684;SDS011;12020;51.384;6.908;2022-08-14T10:27:22;5.63;;;5.10;;
23684;SDS011;12020;51.384;6.908;2022-08-14T10:30:31;5.53;;;5.03;;
23684;SDS011;12020;51.384;6.908;2022-08-14T10:32:45;5.93;;;5.43;;
23684;SDS011;12020;51.384;6.908;2022-08-14T10:35:13;5.63;;;5.22;;
23684;SDS011;12020;51.384;6.908;2022-08-14T10:37:41;6.28;;;5.63;;
23684;SDS011;12020;51.384;6.908;2022-08-14T10:40:13;5.97;;;5.47;;
23684;SDS011;12020;51.384;6.908;2022-08-14T10:42:41;5.70;;;5.20;;
23684;SDS011;12020;51.384;6.908;2022-08-14T10:48:12;8.10;;;5.38;;
23684;SDS011;12020;51.384;6.908;2022-08-14T10:50:40;5.30;;;4.90;;
23684;SDS011;12020;51.384;6.908;2022-08-14T10:53:09;5.53;;;5.00;;
23684;SDS011;12020;51.384;6.908;2022-08-14T10:55:38;5.90;;;5.40;;
23684;SDS011;12020;51.384;6.908;2022-08-14T10:58:10;6.03;;;5.30;;
23684;SDS011;12020;51.384;6.908;2022-08-14T11:00:40;6.13;;;5.63;;
23684;SDS011;12020;51.384;6.908;2022-08-14T11:03:17;5.78;;;5.30;;
23684;SDS011;12020;51.384;6.908;2022-08-14T11:05:44;5.53;;;5.10;;
23684;SDS011;12020;51.384;6.908;2022-08-14T11:08:14;5.88;;;5.38;;
23684;SDS011;12020;51.384;6.908;2022-08-14T11:13:22;5.88;;;5.38;;
23684;SDS011;12020;51.384;6.908;2022-08-14T11:15:51;5.67;;;5.20;;
23684;SDS011;12020;51.384;6.908;2022-08-14T11:18:20;6.05;;;5.57;;
23684;SDS011;12020;51.384;6.908;2022-08-14T11:20:50;6.07;;;5.50;;
23684;SDS011;12020;51.384;6.908;2022-08-14T11:23:21;5.68;;;5.18;;
23684;SDS011;12020;51.384;6.908;2022-08-14T11:25:55;5.85;;;5.40;;
23684;SDS011;12020;51.384;6.908;2022-08-14T11:28:23;6.10;;;5.65;;
23684;SDS011;12020;51.384;6.908;2022-08-14T11:30:53;5.93;;;5.53;;
23684;SDS011;12020;51.384;6.908;2022-08-14T11:33:25;6.05;;;5.65;;
23684;SDS011;12020;51.384;6.908;2022-08-14T11:36:01;5.60;;;5.20;;
23684;SDS011;12020;51.384;6.908;2022-08-14T11:38:39;6.23;;;5.73;;
23684;SDS011;12020;51.384;6.908;2022-08-14T11:41:12;5.77;;;5.27;;
23684;SDS011;12020;51.384;6.908;2022-08-14T11:43:48;6.25;;;5.75;;
23684;SDS011;12020;51.384;6.908;2022-08-14T11:46:15;5.90;;;5.35;;
23684;SDS011;12020;51.384;6.908;2022-08-14T11:51:16;6.00;;;5.45;;
23684;SDS011;12020;51.384;6.908;2022-08-14T11:56:36;6.20;;;5.70;;
23684;SDS011;12020;51.384;6.908;2022-08-14T11:59:05;6.50;;;5.95;;
23684;SDS011;12020;51.384;6.908;2022-08-14T12:01:33;6.30;;;5.80;;
23684;SDS011;12020;51.384;6.908;2022-08-14T12:04:09;6.20;;;5.70;;
23684;SDS011;12020;51.384;6.908;2022-08-14T12:06:46;6.32;;;5.75;;
23684;SDS011;12020;51.384;6.908;2022-08-14T12:09:25;6.53;;;5.90;;
23684;SDS011;12020;51.384;6.908;2022-08-14T12:11:54;6.70;;;6.00;;
23684;SDS011;12020;51.384;6.908;2022-08-14T12:16:59;6.32;;;5.72;;
23684;SDS011;12020;51.384;6.908;2022-08-14T12:19:41;6.13;;;5.63;;
23684;SDS011;12020;51.384;6.908;2022-08-14T12:22:13;6.10;;;5.70;;
23684;SDS011;12020;51.384;6.908;2022-08-14T12:24:40;6.03;;;5.63;;
23684;SDS011;12020;51.384;6.908;2022-08-14T12:27:10;5.88;;;5.45;;
23684;SDS011;12020;51.384;6.908;2022-08-14T12:29:49;6.28;;;5.78;;
23684;SDS011;12020;51.384;6.908;2022-08-14T12:32:17;6.15;;;5.60;;
23684;SDS011;12020;51.384;6.908;2022-08-14T12:34:51;6.47;;;5.57;;
23684;SDS011;12020;51.384;6.908;2022-08-14T12:37:19;6.28;;;5.68;;
23684;SDS011;12020;51.384;6.908;2022-08-14T12:39:54;6.07;;;5.40;;
23684;SDS011;12020;51.384;6.908;2022-08-14T12:42:32;5.28;;;4.88;;
23684;SDS011;12020;51.384;6.908;2022-08-14T12:45:00;5.80;;;5.30;;
23684;SDS011;12020;51.384;6.908;2022-08-14T12:47:26;5.55;;;5.07;;
23684;SDS011;12020;51.384;6.908;2022-08-14T12:49:55;5.40;;;5.00;;
23684;SDS011;12020;51.384;6.908;2022-08-14T12:57:41;5.20;;;4.80;;
23684;SDS011;12020;51.384;6.908;2022-08-14T13:00:16;5.33;;;4.93;;
23684;SDS011;12020;51.384;6.908;2022-08-14T13:02:53;4.80;;;4.40;;
23684;SDS011;12020;51.384;6.908;2022-08-14T13:05:20;4.60;;;4.30;;
23684;SDS011;12020;51.384;6.908;2022-08-14T13:07:57;4.63;;;4.23;;
23684;SDS011;12020;51.384;6.908;2022-08-14T13:10:24;5.30;;;4.80;;
23684;SDS011;12020;51.384;6.908;2022-08-14T13:12:53;5.28;;;4.88;;
23684;SDS011;12020;51.384;6.908;2022-08-14T13:15:22;5.45;;;4.68;;
23684;SDS011;12020;51.384;6.908;2022-08-14T13:17:49;4.80;;;4.35;;
23684;SDS011;12020;51.384;6.908;2022-08-14T13:20:18;4.73;;;4.33;;
23684;SDS011;12020;51.384;6.908;2022-08-14T13:22:48;5.05;;;4.65;;
23684;SDS011;12020;51.384;6.908;2022-08-14T13:25:17;5.30;;;4.80;;
23684;SDS011;12020;51.384;6.908;2022-08-14T13:27:52;5.75;;;5.18;;
23684;SDS011;12020;51.384;6.908;2022-08-14T13:30:22;5.53;;;5.03;;
23684;SDS011;12020;51.384;6.908;2022-08-14T13:32:49;5.13;;;4.70;;
23684;SDS011;12020;51.384;6.908;2022-08-14T13:35:18;5.40;;;5.00;;
23684;SDS011;12020;51.384;6.908;2022-08-14T13:37:46;5.30;;;4.90;;
23684;SDS011;12020;51.384;6.908;2022-08-14T13:40:16;5.25;;;4.85;;
23684;SDS011;12020;51.384;6.908;2022-08-14T13:42:47;5.10;;;4.70;;
23684;SDS011;12020;51.384;6.908;2022-08-14T13:45:18;4.65;;;4.22;;
23684;SDS011;12020;51.384;6.908;2022-08-14T13:47:48;4.90;;;4.50;;
23684;SDS011;12020;51.384;6.908;2022-08-14T13:50:16;5.32;;;4.93;;
23684;SDS011;12020;51.384;6.908;2022-08-14T13:52:45;5.22;;;4.82;;
23684;SDS011;12020;51.384;6.908;2022-08-14T13:55:20;5.13;;;4.72;;
23684;SDS011;12020;51.384;6.908;2022-08-14T13:57:49;5.07;;;4.68;;
23684;SDS011;12020;51.384;6.908;2022-08-14T14:00:16;4.93;;;4.53;;
23684;SDS011;12020;51.384;6.908;2022-08-14T14:02:44;5.30;;;4.90;;
23684;SDS011;12020;51.384;6.908;2022-08-14T14:05:15;5.07;;;4.68;;
23684;SDS011;12020;51.384;6.908;2022-08-14T14:07:46;4.97;;;4.57;;
23684;SDS011;12020;51.384;6.908;2022-08-14T14:10:14;4.90;;;4.60;;
23684;SDS011;12020;51.384;6.908;2022-08-14T14:12:42;5.05;;;4.63;;
23684;SDS011;12020;51.384;6.908;2022-08-14T14:15:10;4.97;;;4.57;;
23684;SDS011;12020;51.384;6.908;2022-08-14T14:17:39;5.00;;;4.60;;
23684;SDS011;12020;51.384;6.908;2022-08-14T14:20:10;5.18;;;4.78;;
23684;SDS011;12020;51.384;6.908;2022-08-14T14:22:40;4.78;;;4.47;;
23684;SDS011;12020;51.384;6.908;2022-08-14T14:25:11;4.78;;;4.45;;
23684;SDS011;12020;51.384;6.908;2022-08-14T14:27:40;5.10;;;4.70;;
23684;SDS011;12020;51.384;6.908;2022-08-14T14:30:09;4.95;;;4.45;;
23684;SDS011;12020;51.384;6.908;2022-08-14T14:32:38;5.10;;;4.72;;
23684;SDS011;12020;51.384;6.908;2022-08-14T14:35:09;4.82;;;4.43;;
23684;SDS011;12020;51.384;6.908;2022-08-14T14:37:38;4.75;;;4.45;;
23684;SDS011;12020;51.384;6.908;2022-08-14T14:40:06;4.90;;;4.60;;
23684;SDS011;12020;51.384;6.908;2022-08-14T14:42:34;4.93;;;4.50;;
23684;SDS011;12020;51.384;6.908;2022-08-14T14:45:10;4.85;;;4.45;;
23684;SDS011;12020;51.384;6.908;2022-08-14T14:47:51;5.00;;;4.60;;
23684;SDS011;12020;51.384;6.908;2022-08-14T14:50:19;4.85;;;4.45;;
23684;SDS011;12020;51.384;6.908;2022-08-14T14:52:47;4.80;;;4.40;;
23684;SDS011;12020;51.384;6.908;2022-08-14T14:55:14;5.35;;;4.57;;
23684;SDS011;12020;51.384;6.908;2022-08-14T14:57:42;5.22;;;4.82;;
23684;SDS011;12020;51.384;6.908;2022-08-14T15:00:17;5.20;;;4.80;;
23684;SDS011;12020;51.384;6.908;2022-08-14T15:02:47;4.90;;;4.60;;
23684;SDS011;12020;51.384;6.908;2022-08-14T15:05:15;5.28;;;4.80;;
23684;SDS011;12020;51.384;6.908;2022-08-14T15:07:42;5.25;;;4.63;;
23684;SDS011;12020;51.384;6.908;2022-08-14T15:10:14;4.85;;;4.45;;
23684;SDS011;12020;51.384;6.908;2022-08-14T15:12:49;5.22;;;4.72;;
23684;SDS011;12020;51.384;6.908;2022-08-14T15:15:15;5.00;;;4.60;;
23684;SDS011;12020;51.384;6.908;2022-08-14T15:17:40;5.38;;;4.97;;
23684;SDS011;12020;51.384;6.908;2022-08-14T15:20:11;4.78;;;4.38;;
23684;SDS011;12020;51.384;6.908;2022-08-14T15:22:38;5.10;;;4.65;;
23684;SDS011;12020;51.384;6.908;2022-08-14T15:25:06;5.50;;;5.00;;